Time;durP1;ratioP1;P1;durP2;ratioP2;P2;SDS_P1;SDS_P2;PMS_P1;PMS_P2;Temp;Humidity;BMP_temperature;BMP_pressure;BME280_temperature;BME280_humidity;BME280_pressure;Samples;Min_cycle;Max_cycle;Signal;HPM_P1;HPM_P2
2023/01/24 00:01:02;;;;;;;52.75;29.17;;;2.80;99.90;;;;;;5034715;28;20057;-77
2023/01/24 00:03:30;;;;;;;55.45;28.65;;;2.30;99.90;;;;;;5034748;28;20449;-78
2023/01/24 00:05:57;;;;;;;51.63;28.83;;;2.20;99.90;;;;;;5001071;28;20369;-78
2023/01/24 00:08:25;;;;;;;56.63;29.90;;;2.30;99.90;;;;;;5035703;28;20041;-80
2023/01/24 00:11:01;;;;;;;52.92;27.83;;;1.90;99.90;;;;;;5017282;28;20045;-77
2023/01/24 00:13:29;;;;;;;54.30;28.63;;;2.30;99.90;;;;;;5034864;28;20049;-79
2023/01/24 00:16:15;;;;;;;57.35;29.80;;;2.30;99.90;;;;;;5001799;28;20065;-77
2023/01/24 00:18:42;;;;;;;53.28;28.20;;;2.30;99.90;;;;;;5034286;28;20056;-76
2023/01/24 00:21:16;;;;;;;56.85;27.80;;;2.30;99.90;;;;;;5034364;28;20488;-75
2023/01/24 00:23:46;;;;;;;58.55;28.02;;;2.20;99.90;;;;;;5017983;28;20066;-79
2023/01/24 00:26:15;;;;;;;54.90;28.20;;;2.40;99.90;;;;;;5033315;28;20037;-78
2023/01/24 00:28:46;;;;;;;56.63;29.08;;;3.90;99.90;;;;;;5034471;28;20419;-78
2023/01/24 00:31:14;;;;;;;53.28;29.10;;;3.60;99.90;;;;;;5034195;28;20501;-78
2023/01/24 00:33:42;;;;;;;58.45;28.42;;;2.30;99.90;;;;;;5034097;28;20061;-78
2023/01/24 00:36:10;;;;;;;;;;;2.30;99.90;;;;;;5034667;28;20057;-78
2023/01/24 00:38:40;;;;;;;48.03;25.95;;;2.30;99.90;;;;;;5033194;28;20374;-77
2023/01/24 00:41:07;;;;;;;49.47;26.35;;;2.30;99.90;;;;;;5034162;28;20045;-79
2023/01/24 00:43:35;;;;;;;53.38;27.65;;;3.40;99.90;;;;;;5034357;28;20049;-79
2023/01/24 00:46:06;;;;;;;50.63;27.08;;;4.50;99.90;;;;;;5000382;28;20057;-78
2023/01/24 00:48:34;;;;;;;50.65;25.88;;;2.30;99.90;;;;;;5034211;28;20053;-78
2023/01/24 00:51:01;;;;;;;53.20;26.75;;;3.70;99.90;;;;;;5032918;28;20449;-77
2023/01/24 00:53:29;;;;;;;53.95;27.42;;;2.30;99.90;;;;;;5033956;28;20052;-78
2023/01/24 00:55:57;;;;;;;48.15;25.58;;;2.30;99.90;;;;;;5034017;28;20052;-80
2023/01/24 00:58:24;;;;;;;50.30;26.20;;;4.00;99.90;;;;;;5032708;28;20048;-76
2023/01/24 01:00:56;;;;;;;47.30;26.52;;;2.30;99.90;;;;;;5033563;28;20053;-77
2023/01/24 01:03:24;;;;;;;50.53;26.55;;;3.10;99.90;;;;;;5033916;28;20044;-79
2023/01/24 01:06:13;;;;;;;52.40;25.88;;;2.30;99.90;;;;;;5032735;28;20049;-79
2023/01/24 01:08:42;;;;;;;54.47;26.70;;;3.00;99.90;;;;;;5038694;28;20044;-80
2023/01/24 01:11:10;;;;;;;47.97;25.80;;;2.30;99.90;;;;;;5039482;28;20225;-76
2023/01/24 01:13:38;;;;;;;53.13;26.67;;;2.40;99.90;;;;;;5040355;28;20050;-79
2023/01/24 01:16:07;;;;;;;51.33;26.65;;;2.30;99.90;;;;;;5024215;28;20047;-77
2023/01/24 01:18:36;;;;;;;50.67;26.05;;;2.40;99.90;;;;;;5022684;28;20068;-80
2023/01/24 01:21:05;;;;;;;52.53;26.17;;;2.30;99.90;;;;;;5040112;28;20045;-76
2023/01/24 01:23:33;;;;;;;50.53;26.88;;;2.30;99.90;;;;;;5023783;28;20057;-76
2023/01/24 01:26:03;;;;;;;52.88;27.50;;;2.30;99.90;;;;;;5039182;28;20480;-76
2023/01/24 01:28:32;;;;;;;51.25;26.45;;;3.30;99.90;;;;;;5040659;28;20045;-78
2023/01/24 01:30:59;;;;;;;;;;;2.30;99.90;;;;;;5006746;28;20042;-77
2023/01/24 01:33:27;;;;;;;57.22;26.38;;;2.40;99.90;;;;;;5023384;28;19936;-80
2023/01/24 01:35:54;;;;;;;47.15;25.65;;;2.30;99.90;;;;;;5041210;28;20457;-76
2023/01/24 01:38:24;;;;;;;51.65;26.25;;;2.30;99.90;;;;;;5039779;28;20053;-80
2023/01/24 01:40:51;;;;;;;54.65;26.77;;;2.30;99.90;;;;;;5023887;28;20373;-76
2023/01/24 01:43:21;;;;;;;51.47;26.00;;;2.30;99.90;;;;;;5040378;28;20073;-77
2023/01/24 01:45:54;;;;;;;61.25;27.05;;;2.60;99.90;;;;;;5038723;28;20059;-78
2023/01/24 01:48:36;;;;;;;49.85;26.10;;;2.30;99.90;;;;;;5039984;28;20052;-79
2023/01/24 01:51:25;;;;;;;52.67;25.58;;;2.30;99.90;;;;;;5022915;28;20384;-76
2023/01/24 01:54:13;;;;;;;48.33;25.23;;;2.40;99.90;;;;;;5039938;28;20053;-75
2023/01/24 01:56:45;;;;;;;54.17;25.55;;;2.30;99.90;;;;;;5039931;28;20053;-79
2023/01/24 01:59:18;;;;;;;50.17;24.92;;;2.30;99.90;;;;;;5038825;28;20044;-75
2023/01/24 02:01:47;;;;;;;46.88;25.40;;;2.40;99.90;;;;;;4995540;28;20050;-76
2023/01/24 02:04:31;;;;;;;48.65;25.55;;;2.30;99.90;;;;;;5019670;28;20381;-79
2023/01/24 02:07:20;;;;;;;51.60;24.70;;;2.40;99.90;;;;;;4987981;28;20045;-78
2023/01/24 02:09:52;;;;;;;49.83;24.35;;;3.10;99.90;;;;;;5004114;28;20068;-77
2023/01/24 02:12:26;;;;;;;49.13;25.35;;;4.00;99.90;;;;;;5019896;28;20381;-79
2023/01/24 02:17:44;;;;;;;49.20;24.88;;;2.20;99.90;;;;;;5003059;28;20045;-76
2023/01/24 02:20:27;;;;;;;47.67;24.30;;;3.20;99.90;;;;;;5000986;28;20053;-77
2023/01/24 02:23:03;;;;;;;47.30;25.08;;;2.40;99.90;;;;;;5017749;28;20493;-79
2023/01/24 02:25:39;;;;;;;49.47;24.80;;;2.40;99.90;;;;;;5016482;28;20046;-77
2023/01/24 02:28:08;;;;;;;46.88;25.38;;;2.60;99.90;;;;;;5000864;28;20038;-81
2023/01/24 02:30:39;;;;;;;47.78;24.77;;;2.20;99.90;;;;;;4984704;28;20046;-79
2023/01/24 02:33:15;;;;;;;51.22;25.17;;;4.10;99.90;;;;;;4982943;28;20355;-78
2023/01/24 02:35:45;;;;;;;58.42;27.02;;;2.40;99.90;;;;;;5000182;28;20503;-78
2023/01/24 02:38:23;;;;;;;47.80;24.55;;;2.40;99.90;;;;;;4983625;28;20054;-80
2023/01/24 02:40:56;;;;;;;50.47;26.38;;;2.40;99.90;;;;;;4968728;28;20049;-76
2023/01/24 02:43:28;;;;;;;43.65;24.67;;;2.40;99.90;;;;;;5000433;28;20052;-78
2023/01/24 02:45:55;;;;;;;47.08;24.98;;;2.40;99.90;;;;;;4982610;28;20046;-78
2023/01/24 02:48:23;;;;;;;48.33;25.42;;;2.40;99.90;;;;;;4999957;28;20046;-79
2023/01/24 02:53:36;;;;;;;44.97;23.92;;;2.50;99.90;;;;;;5000153;28;20053;-76
2023/01/24 02:58:53;;;;;;;48.10;23.58;;;2.40;99.90;;;;;;4982529;28;20054;-78
2023/01/24 03:01:22;;;;;;;45.50;24.17;;;4.20;99.90;;;;;;4996633;28;20076;-78
2023/01/24 03:03:55;;;;;;;48.25;24.10;;;2.50;99.90;;;;;;5036238;28;20380;-80
2023/01/24 03:06:23;;;;;;;49.38;24.63;;;2.40;99.90;;;;;;5034753;28;20056;-76
2023/01/24 03:08:51;;;;;;;42.03;23.25;;;2.40;99.90;;;;;;5003152;28;20392;-78
2023/01/24 03:11:39;;;;;;;46.63;23.65;;;3.80;99.90;;;;;;5035144;28;20068;-78
2023/01/24 03:36:31;;;;;;;48.03;24.13;;;2.50;99.90;;;;;;5035587;28;20049;-82
2023/01/24 03:41:46;;;;;;;42.97;23.88;;;2.80;99.90;;;;;;5035959;28;20050;-81
2023/01/24 03:44:14;;;;;;;43.17;24.02;;;2.40;99.90;;;;;;5034192;28;20045;-77
2023/01/24 03:46:42;;;;;;;45.00;22.98;;;2.50;99.90;;;;;;5018321;28;20054;-79
2023/01/24 03:49:13;;;;;;;49.50;25.08;;;3.50;99.90;;;;;;5035187;28;20056;-77
2023/01/24 03:54:27;;;;;;;49.33;23.77;;;2.50;99.90;;;;;;5035209;28;19948;-79
2023/01/24 03:57:02;;;;;;;46.38;23.63;;;2.50;99.90;;;;;;5018315;28;20064;-78
2023/01/24 03:59:29;;;;;;;46.67;24.88;;;2.80;99.90;;;;;;5033795;28;20060;-76
2023/01/24 04:01:57;;;;;;;50.17;24.30;;;2.50;99.90;;;;;;5034762;28;20052;-78
2023/01/24 04:05:12;;;;;;;48.35;24.58;;;2.30;99.90;;;;;;5033938;28;20239;-78
2023/01/24 04:07:19;;;;;;;48.75;25.13;;;3.80;99.90;;;;;;5034491;28;20049;-77
2023/01/24 04:09:57;;;;;;;41.50;24.23;;;2.60;99.90;;;;;;5035157;28;20049;-74
2023/01/24 04:12:26;;;;;;;45.70;24.27;;;2.50;99.90;;;;;;5017415;28;20055;-79
2023/01/24 04:14:54;;;;;;;49.50;24.95;;;2.50;99.90;;;;;;5034744;28;20045;-78
2023/01/24 04:17:22;;;;;;;49.13;24.52;;;2.50;99.90;;;;;;5018396;28;20097;-78
2023/01/24 04:19:52;;;;;;;53.13;26.05;;;2.50;99.90;;;;;;5016964;28;20053;-75
2023/01/24 04:22:20;;;;;;;53.63;25.88;;;2.50;99.90;;;;;;5034361;28;20054;-80
2023/01/24 04:24:48;;;;;;;52.00;25.25;;;2.50;99.90;;;;;;5017235;28;20376;-77
2023/01/24 04:27:17;;;;;;;47.60;25.90;;;2.50;99.90;;;;;;5034753;28;20041;-75
2023/01/24 04:30:04;;;;;;;49.60;25.25;;;2.50;99.90;;;;;;5017904;28;20050;-77
2023/01/24 04:32:34;;;;;;;53.50;26.17;;;2.60;99.90;;;;;;5000987;28;20045;-75
2023/01/24 04:35:27;;;;;;;50.17;25.75;;;2.50;99.90;;;;;;5021182;28;20037;-78
2023/01/24 04:38:00;;;;;;;50.17;26.08;;;3.30;99.90;;;;;;5033462;28;20049;-78
2023/01/24 04:40:59;;;;;;;54.15;27.95;;;2.40;99.90;;;;;;5023461;28;20060;-75
2023/01/24 04:43:29;;;;;;;55.15;28.75;;;4.10;99.90;;;;;;5033827;28;20042;-75
2023/01/24 04:45:58;;;;;;;53.20;26.25;;;2.60;99.90;;;;;;5016956;28;20045;-76
2023/01/24 04:48:38;;;;;;;56.90;28.02;;;4.00;99.90;;;;;;5003300;28;20049;-78
2023/01/24 04:51:06;;;;;;;61.03;29.52;;;2.50;99.90;;;;;;5016354;28;20049;-76
2023/01/24 04:53:35;;;;;;;;;;;2.60;99.90;;;;;;5034736;28;20053;-76
2023/01/24 04:56:03;;;;;;;53.10;28.23;;;2.60;99.90;;;;;;5017305;28;19925;-78
2023/01/24 04:58:33;;;;;;;61.22;29.23;;;2.60;99.90;;;;;;5033216;28;20056;-76
2023/01/24 05:01:02;;;;;;;60.00;29.65;;;2.70;99.90;;;;;;5033795;28;20053;-80
2023/01/24 05:03:36;;;;;;;59.20;29.70;;;2.70;99.90;;;;;;5001984;28;20069;-78
2023/01/24 05:06:04;;;;;;;56.85;30.15;;;4.10;99.90;;;;;;5016428;28;20041;-79
2023/01/24 05:08:32;;;;;;;56.38;28.95;;;2.70;99.90;;;;;;5034376;28;20049;-78
2023/01/24 05:11:02;;;;;;;56.70;29.63;;;2.60;99.90;;;;;;5000237;28;20065;-80
2023/01/24 05:13:33;;;;;;;55.33;29.50;;;2.80;99.90;;;;;;5017415;28;20053;-78
2023/01/24 05:16:03;;;;;;;57.95;30.08;;;3.30;99.90;;;;;;5001044;28;20056;-77
2023/01/24 05:18:31;;;;;;;55.45;30.52;;;2.80;99.90;;;;;;5000604;28;20060;-78
2023/01/24 05:21:08;;;;;;;61.05;31.08;;;2.80;99.90;;;;;;5017698;28;20057;-78
2023/01/24 05:23:35;;;;;;;60.33;30.05;;;2.80;99.90;;;;;;5033886;28;20060;-79
2023/01/24 05:26:06;;;;;;;54.13;28.73;;;2.80;99.90;;;;;;5016832;28;20041;-79
2023/01/24 05:28:34;;;;;;;54.42;29.33;;;2.80;99.90;;;;;;5033532;28;20041;-76
2023/01/24 05:31:07;;;;;;;55.30;29.60;;;2.80;99.90;;;;;;5032845;28;20049;-78
2023/01/24 05:33:35;;;;;;;59.40;29.83;;;2.90;99.90;;;;;;5033934;28;20045;-77
2023/01/24 05:36:09;;;;;;;60.20;31.40;;;2.80;99.90;;;;;;5033841;28;20056;-77
2023/01/24 05:38:38;;;;;;;56.22;29.50;;;2.90;99.90;;;;;;5016148;28;20049;-78
2023/01/24 05:41:08;;;;;;;58.55;31.40;;;2.90;99.90;;;;;;5000666;28;20496;-78
2023/01/24 05:43:36;;;;;;;56.38;29.75;;;4.40;99.90;;;;;;5033384;28;20052;-79
2023/01/24 05:46:05;;;;;;;55.03;29.95;;;2.90;99.90;;;;;;5032391;28;20049;-76
2023/01/24 05:48:38;;;;;;;53.90;29.15;;;3.60;99.90;;;;;;5018345;28;20045;-79
2023/01/24 05:51:08;;;;;;;59.42;30.25;;;3.50;99.90;;;;;;4999653;28;20045;-77
2023/01/24 05:53:39;;;;;;;53.13;29.15;;;2.90;99.90;;;;;;5034296;28;20360;-78
2023/01/24 05:56:12;;;;;;;54.13;29.38;;;3.00;99.90;;;;;;5020349;28;20052;-78
2023/01/24 05:58:42;;;;;;;51.08;27.80;;;3.00;99.90;;;;;;5036528;28;20056;-77
2023/01/24 06:01:16;;;;;;;51.65;28.58;;;3.00;99.90;;;;;;5004808;28;20064;-78
2023/01/24 06:03:47;;;;;;;49.17;28.33;;;3.10;99.90;;;;;;5020712;28;20065;-76
2023/01/24 06:06:20;;;;;;;54.42;28.35;;;3.10;99.90;;;;;;5019879;28;20372;-76
2023/01/24 06:08:47;;;;;;;49.42;27.58;;;3.10;99.90;;;;;;5020795;28;20041;-78
2023/01/24 06:11:21;;;;;;;50.20;27.98;;;3.10;99.90;;;;;;5035773;28;20457;-75
2023/01/24 06:13:50;;;;;;;52.00;27.83;;;3.00;99.90;;;;;;5020451;28;20057;-78
2023/01/24 06:16:20;;;;;;;46.00;26.67;;;3.50;99.90;;;;;;5036744;28;20057;-76
2023/01/24 06:18:49;;;;;;;45.20;24.65;;;3.10;99.90;;;;;;5036511;28;20060;-80
2023/01/24 06:21:35;;;;;;;45.95;24.75;;;3.20;99.90;;;;;;5020086;28;20060;-80
2023/01/24 06:24:04;;;;;;;49.65;25.75;;;3.20;99.90;;;;;;5036545;28;20057;-77
2023/01/24 06:26:46;;;;;;;43.05;24.33;;;3.20;99.90;;;;;;5021933;28;20048;-78
2023/01/24 06:29:15;;;;;;;41.83;24.83;;;3.20;99.90;;;;;;5037125;28;20049;-75
2023/01/24 06:32:11;;;;;;;39.28;23.33;;;3.20;99.90;;;;;;5019649;28;20496;-77
2023/01/24 06:34:50;;;;;;;37.53;22.27;;;3.20;99.90;;;;;;5036360;28;20037;-76
2023/01/24 06:37:46;;;;;;;42.00;24.88;;;3.20;99.90;;;;;;5036446;28;20042;-79
2023/01/24 06:40:17;;;;;;;47.35;24.15;;;3.30;99.90;;;;;;5004060;28;20388;-76
2023/01/24 06:42:46;;;;;;;41.90;23.58;;;3.30;99.90;;;;;;5020176;28;20056;-80
2023/01/24 06:45:14;;;;;;;43.85;24.55;;;3.30;99.90;;;;;;5002361;28;20422;-79
2023/01/24 06:47:42;;;;;;;39.60;23.83;;;3.30;99.90;;;;;;5019851;28;20041;-79
2023/01/24 06:50:22;;;;;;;38.63;23.73;;;3.30;99.90;;;;;;5037342;28;20045;-77
2023/01/24 06:52:50;;;;;;;45.45;25.65;;;3.30;99.90;;;;;;5018594;28;20057;-78
2023/01/24 06:55:19;;;;;;;42.90;24.48;;;3.30;99.90;;;;;;5036154;28;20041;-79
2023/01/24 06:57:54;;;;;;;41.17;24.23;;;3.30;99.90;;;;;;5018776;28;20054;-75
2023/01/24 07:00:22;;;;;;;39.25;23.90;;;3.20;99.90;;;;;;5036346;28;20053;-78
2023/01/24 07:03:07;;;;;;;44.40;24.92;;;3.30;99.90;;;;;;4999947;28;20061;-79
2023/01/24 07:05:36;;;;;;;42.28;24.08;;;3.30;99.90;;;;;;4982606;28;20061;-77
2023/01/24 07:08:05;;;;;;;42.30;24.02;;;3.20;99.90;;;;;;5000008;28;20042;-78
2023/01/24 07:10:33;;;;;;;43.90;25.40;;;3.20;99.90;;;;;;5016809;28;20488;-79
2023/01/24 07:13:00;;;;;;;45.35;25.23;;;3.30;99.90;;;;;;4998444;28;20053;-81
2023/01/24 07:15:28;;;;;;;37.53;20.90;;;3.20;99.90;;;;;;4983364;28;20046;-79
2023/01/24 07:17:56;;;;;;;37.50;22.08;;;3.20;99.90;;;;;;5015598;28;20389;-77
2023/01/24 07:20:23;;;;;;;38.30;22.35;;;3.30;99.90;;;;;;4999801;28;20050;-75
2023/01/24 07:22:51;;;;;;;36.78;21.60;;;3.30;99.90;;;;;;4999581;28;20064;-77
2023/01/24 07:25:20;;;;;;;;;;;3.30;99.90;;;;;;4998777;28;20053;-76
2023/01/24 07:27:48;;;;;;;33.83;19.30;;;3.30;99.90;;;;;;4999781;28;19921;-78
2023/01/24 07:30:16;;;;;;;36.60;20.20;;;3.30;99.90;;;;;;4999719;28;20049;-78
2023/01/24 07:32:43;;;;;;;40.08;21.13;;;3.30;99.90;;;;;;4998314;28;20042;-75
2023/01/24 07:35:11;;;;;;;35.60;20.10;;;3.30;99.90;;;;;;4983296;28;20046;-76
2023/01/24 07:37:41;;;;;;;33.03;18.70;;;3.30;99.90;;;;;;5015262;28;20519;-79
2023/01/24 07:40:09;;;;;;;36.90;21.08;;;3.20;99.90;;;;;;5016751;28;20342;-78
2023/01/24 07:42:37;;;;;;;31.83;19.40;;;3.30;99.90;;;;;;4999294;28;20053;-79
2023/01/24 07:45:05;;;;;;;33.20;19.30;;;3.20;99.90;;;;;;4981738;28;20065;-80
2023/01/24 07:47:33;;;;;;;28.52;16.48;;;3.30;99.90;;;;;;4999125;28;20042;-78
2023/01/24 07:50:00;;;;;;;27.65;16.73;;;3.30;99.90;;;;;;4998817;28;20042;-77
2023/01/24 07:52:28;;;;;;;31.17;18.50;;;3.50;99.90;;;;;;5014903;28;20053;-77
2023/01/24 07:54:55;;;;;;;31.83;17.90;;;4.00;99.90;;;;;;4999111;28;20061;-77
2023/01/24 07:57:23;;;;;;;33.15;19.00;;;3.30;99.90;;;;;;4999210;28;20050;-78
2023/01/24 07:59:50;;;;;;;36.65;20.05;;;3.30;99.90;;;;;;4997711;28;20049;-77
2023/01/24 08:02:18;;;;;;;32.00;18.00;;;4.90;99.90;;;;;;5010960;28;20061;-79
2023/01/24 08:04:47;;;;;;;28.05;15.77;;;3.30;99.90;;;;;;5017186;28;20060;-76
2023/01/24 08:07:18;;;;;;;26.33;14.30;;;3.30;99.90;;;;;;5018782;28;20050;-76
2023/01/24 08:09:47;;;;;;;21.85;12.05;;;3.30;99.90;;;;;;5035383;28;20041;-77
2023/01/24 08:12:15;;;;;;;21.75;13.20;;;3.40;99.90;;;;;;5034294;28;20045;-77
2023/01/24 08:14:44;;;;;;;26.38;13.23;;;4.30;99.90;;;;;;5018385;28;20064;-77
2023/01/24 08:17:11;;;;;;;25.52;13.65;;;3.30;99.90;;;;;;5034899;28;20042;-75
2023/01/24 08:19:39;;;;;;;25.17;14.10;;;3.40;99.90;;;;;;5034132;28;20046;-79
2023/01/24 08:22:23;;;;;;;22.05;12.32;;;5.70;99.90;;;;;;5034740;28;20473;-79
2023/01/24 08:24:50;;;;;;;25.10;14.25;;;3.70;99.90;;;;;;5016918;28;20400;-77
2023/01/24 08:27:18;;;;;;;23.23;12.88;;;4.00;99.90;;;;;;5018506;28;20072;-77
2023/01/24 08:29:45;;;;;;;22.98;12.48;;;3.40;99.90;;;;;;5034150;28;20045;-75
2023/01/24 08:32:13;;;;;;;21.50;12.52;;;3.30;99.90;;;;;;5033427;28;20056;-76
2023/01/24 08:34:40;;;;;;;23.50;14.43;;;3.50;99.90;;;;;;5034415;28;20333;-76
2023/01/24 08:37:08;;;;;;;23.77;14.85;;;3.50;99.90;;;;;;5018148;28;20049;-78
2023/01/24 08:39:35;;;;;;;26.67;14.32;;;3.50;99.90;;;;;;5034098;28;20049;-78
2023/01/24 08:42:03;;;;;;;21.40;12.85;;;5.80;99.90;;;;;;5034906;28;20056;-79
2023/01/24 08:44:33;;;;;;;19.95;12.52;;;3.50;99.90;;;;;;5033116;28;20057;-76
2023/01/24 08:47:01;;;;;;;24.02;12.95;;;3.50;99.90;;;;;;5034499;28;20384;-75
2023/01/24 08:49:31;;;;;;;24.55;14.98;;;3.70;99.90;;;;;;5034888;28;20045;-76
2023/01/24 08:51:59;;;;;;;19.15;11.52;;;3.40;99.90;;;;;;5034028;28;20046;-79
2023/01/24 08:54:28;;;;;;;19.58;11.98;;;3.50;99.90;;;;;;5033891;28;20064;-76
2023/01/24 08:56:57;;;;;;;19.35;12.13;;;4.00;99.90;;;;;;5035091;28;20064;-80
2023/01/24 08:59:25;;;;;;;25.27;14.63;;;3.60;99.90;;;;;;5033805;28;20476;-78
2023/01/24 09:01:56;;;;;;;23.92;14.88;;;3.60;99.90;;;;;;5021734;28;20065;-78
2023/01/24 09:04:26;;;;;;;28.55;15.20;;;3.60;99.90;;;;;;4996847;28;20385;-79
2023/01/24 09:06:53;;;;;;;22.30;12.23;;;3.70;99.90;;;;;;4981571;28;20060;-79
2023/01/24 09:09:21;;;;;;;19.65;11.95;;;3.60;99.90;;;;;;5015025;28;20046;-78
2023/01/24 09:11:48;;;;;;;18.58;12.02;;;3.90;99.90;;;;;;4997038;28;20060;-78
2023/01/24 09:14:16;;;;;;;24.63;13.90;;;4.30;99.90;;;;;;4998060;28;20049;-80
2023/01/24 09:16:43;;;;;;;26.38;14.52;;;3.70;99.90;;;;;;4997787;28;20050;-77
2023/01/24 09:19:12;;;;;;;25.77;13.93;;;3.80;99.90;;;;;;4996930;28;20054;-80
2023/01/24 09:21:39;;;;;;;22.55;13.68;;;3.80;99.90;;;;;;5014924;28;20499;-77
2023/01/24 09:24:07;;;;;;;19.83;11.88;;;5.00;99.90;;;;;;5014765;28;20045;-79
2023/01/24 09:26:35;;;;;;;19.73;11.38;;;3.80;99.90;;;;;;5014614;28;20053;-77
2023/01/24 09:29:02;;;;;;;23.17;12.07;;;6.00;99.90;;;;;;5016748;28;20042;-79
2023/01/24 09:31:30;;;;;;;20.33;12.65;;;4.20;99.90;;;;;;4984675;28;20050;-80
2023/01/24 09:33:58;;;;;;;18.70;11.65;;;4.10;99.90;;;;;;5001513;28;20057;-75
2023/01/24 09:36:27;;;;;;;19.45;12.07;;;5.70;99.90;;;;;;5001263;28;20042;-78
2023/01/24 09:38:56;;;;;;;18.55;10.90;;;3.90;99.90;;;;;;5000782;28;20057;-80
2023/01/24 09:41:43;;;;;;;17.38;10.73;;;3.80;99.90;;;;;;5001803;28;20361;-79
2023/01/24 09:44:38;;;;;;;19.15;11.13;;;4.00;99.90;;;;;;4984327;28;20058;-76
2023/01/24 09:47:25;;;;;;;20.92;11.93;;;4.00;99.90;;;;;;5001270;28;20061;-75
2023/01/24 09:50:02;;;;;;;19.08;11.75;;;4.00;99.90;;;;;;5001715;28;20061;-76
2023/01/24 09:52:41;;;;;;;19.25;10.95;;;4.00;99.90;;;;;;5017369;28;20117;-80
2023/01/24 09:55:14;;;;;;;23.00;12.82;;;4.10;99.90;;;;;;4984866;28;20049;-79
2023/01/24 09:57:49;;;;;;;20.58;12.27;;;4.10;99.90;;;;;;5017328;28;20365;-76
2023/01/24 10:00:29;;;;;;;19.90;11.57;;;4.40;99.90;;;;;;5018408;28;20046;-79
2023/01/24 10:02:59;;;;;;;22.30;12.32;;;5.20;99.90;;;;;;5018128;28;20354;-76
2023/01/24 10:05:55;;;;;;;19.42;11.85;;;5.40;99.90;;;;;;5017044;28;20050;-78
2023/01/24 10:08:22;;;;;;;18.80;11.27;;;4.20;99.90;;;;;;4999673;28;20049;-79
2023/01/24 10:11:14;;;;;;;18.02;11.18;;;4.20;99.90;;;;;;5017077;28;20042;-78
2023/01/24 10:14:08;;;;;;;23.00;12.27;;;4.20;99.90;;;;;;5017250;28;20061;-79
2023/01/24 10:16:46;;;;;;;18.70;11.15;;;4.20;99.90;;;;;;5017535;28;20481;-79
2023/01/24 10:19:35;;;;;;;17.80;11.13;;;5.00;99.90;;;;;;5000117;28;20054;-78
2023/01/24 10:22:24;;;;;;;19.40;11.23;;;4.30;99.90;;;;;;5017238;28;20053;-77
2023/01/24 10:25:02;;;;;;;21.20;11.63;;;4.30;99.90;;;;;;5016580;28;20056;-77
2023/01/24 10:27:36;;;;;;;17.42;11.15;;;4.30;99.90;;;;;;5017004;28;20388;-80
2023/01/24 10:30:21;;;;;;;18.15;10.93;;;4.60;99.90;;;;;;5000952;28;20369;-76
2023/01/24 10:32:52;;;;;;;17.67;10.38;;;4.40;99.90;;;;;;4983204;28;20049;-78
2023/01/24 10:35:26;;;;;;;17.23;10.57;;;4.40;99.90;;;;;;5017017;28;20049;-78
2023/01/24 10:37:57;;;;;;;16.08;9.95;;;4.40;99.90;;;;;;4999913;28;20050;-77
2023/01/24 10:40:25;;;;;;;17.17;10.68;;;4.50;99.90;;;;;;5017020;28;20049;-77
2023/01/24 10:42:53;;;;;;;;;;;4.50;99.90;;;;;;5001044;28;20050;-79
2023/01/24 10:45:35;;;;;;;21.02;10.93;;;4.50;99.90;;;;;;5015434;28;19921;-78
2023/01/24 10:48:23;;;;;;;19.90;10.52;;;4.50;99.90;;;;;;5016918;28;20061;-79
2023/01/24 10:50:50;;;;;;;;;;;6.00;99.90;;;;;;5015982;28;20038;-79
2023/01/24 10:53:26;;;;;;;15.07;9.20;;;4.60;99.90;;;;;;5017233;28;20378;-80
2023/01/24 10:56:03;;;;;;;16.00;9.52;;;5.90;99.90;;;;;;5017513;28;20037;-77
2023/01/24 10:58:45;;;;;;;19.05;10.10;;;4.70;99.90;;;;;;4999396;28;20053;-79
2023/01/24 11:01:21;;;;;;;17.27;10.45;;;5.70;99.90;;;;;;5016876;28;20057;-76
2023/01/24 11:03:51;;;;;;;17.92;10.90;;;5.80;99.90;;;;;;5017258;28;20057;-76
2023/01/24 11:06:25;;;;;;;17.02;10.80;;;4.70;99.90;;;;;;4998532;28;20050;-80
2023/01/24 11:09:09;;;;;;;17.95;10.05;;;4.70;99.90;;;;;;5000188;28;20041;-79
2023/01/24 11:11:49;;;;;;;16.48;8.93;;;4.70;99.90;;;;;;5015901;28;20045;-75
2023/01/24 11:14:24;;;;;;;18.25;9.48;;;4.70;99.90;;;;;;5016961;28;20057;-78
2023/01/24 11:16:57;;;;;;;20.10;10.25;;;4.70;99.90;;;;;;5000365;28;20104;-80
2023/01/24 11:19:29;;;;;;;16.90;10.15;;;4.80;99.90;;;;;;5015808;28;20481;-80
2023/01/24 11:22:00;;;;;;;16.88;9.82;;;4.90;99.90;;;;;;5016903;28;20050;-77
2023/01/24 11:24:28;;;;;;;17.73;9.45;;;5.00;99.90;;;;;;5015540;28;20062;-77
2023/01/24 11:27:18;;;;;;;16.15;9.23;;;4.80;99.90;;;;;;4999260;28;20050;-76
2023/01/24 11:30:05;;;;;;;16.02;9.02;;;4.90;99.90;;;;;;5016360;28;20385;-75
2023/01/24 11:32:56;;;;;;;15.60;10.25;;;4.90;99.90;;;;;;4998444;28;20046;-75
2023/01/24 11:35:27;;;;;;;18.88;10.35;;;4.90;99.90;;;;;;4999513;28;20050;-77
2023/01/24 11:38:16;;;;;;;14.82;9.68;;;7.20;99.90;;;;;;4998273;28;20042;-76
2023/01/24 11:41:07;;;;;;;19.23;10.52;;;4.90;99.90;;;;;;5016559;28;20046;-76
2023/01/24 11:43:57;;;;;;;15.20;9.25;;;5.00;99.90;;;;;;4992670;28;20364;-80
2023/01/24 11:46:32;;;;;;;15.13;10.27;;;5.00;99.90;;;;;;4997893;28;20061;-78
2023/01/24 11:49:24;;;;;;;18.50;10.38;;;5.20;99.90;;;;;;5016005;28;20050;-80
2023/01/24 11:52:13;;;;;;;19.98;11.45;;;5.10;99.90;;;;;;5014300;28;20041;-78
2023/01/24 11:54:47;;;;;;;17.35;11.07;;;5.10;99.90;;;;;;4999106;28;20118;-79
2023/01/24 11:57:17;;;;;;;23.30;11.45;;;5.10;99.90;;;;;;5016280;28;20054;-76
2023/01/24 12:00:18;;;;;;;23.33;11.95;;;5.40;99.90;;;;;;5014908;28;20064;-78
2023/01/24 12:03:10;;;;;;;18.75;11.88;;;5.10;99.90;;;;;;5015847;28;20076;-76
2023/01/24 12:06:02;;;;;;;21.50;12.05;;;5.10;99.90;;;;;;4997845;28;20397;-77
2023/01/24 12:08:52;;;;;;;20.73;12.75;;;5.20;99.90;;;;;;5015813;28;20042;-79
2023/01/24 12:11:31;;;;;;;23.55;13.05;;;5.20;99.90;;;;;;4997912;28;20380;-77
2023/01/24 12:14:41;;;;;;;19.77;11.52;;;6.10;99.90;;;;;;4998785;28;20075;-77
2023/01/24 12:17:14;;;;;;;19.95;12.15;;;5.20;99.90;;;;;;4998929;28;20041;-77
2023/01/24 12:20:28;;;;;;;18.23;10.70;;;5.30;99.90;;;;;;5014911;28;20046;-81
2023/01/24 12:23:29;;;;;;;20.63;10.85;;;5.30;99.90;;;;;;4998556;28;20372;-76
2023/01/24 12:26:03;;;;;;;18.30;10.57;;;5.30;99.90;;;;;;5009121;28;20054;-80
2023/01/24 12:28:43;;;;;;;16.60;11.52;;;6.90;99.90;;;;;;5015573;28;20381;-78
2023/01/24 12:31:17;;;;;;;19.50;12.15;;;5.30;99.90;;;;;;5014487;28;20214;-77
2023/01/24 12:34:06;;;;;;;18.85;11.70;;;5.30;99.90;;;;;;5015442;28;20045;-80
2023/01/24 12:36:54;;;;;;;21.50;12.90;;;5.40;99.90;;;;;;5015388;28;20038;-76
2023/01/24 12:39:30;;;;;;;21.75;12.98;;;5.40;99.90;;;;;;4996975;28;20050;-78
2023/01/24 12:42:10;;;;;;;21.77;13.38;;;5.90;99.90;;;;;;4998340;28;20384;-79
2023/01/24 12:44:52;;;;;;;19.40;12.63;;;7.10;99.90;;;;;;5014521;28;20053;-78
2023/01/24 12:47:42;;;;;;;18.98;13.23;;;5.20;99.90;;;;;;5015554;28;20389;-77
2023/01/24 12:50:30;;;;;;;18.70;11.48;;;7.30;99.90;;;;;;5014619;28;20373;-76
2023/01/24 12:53:26;;;;;;;22.30;11.77;;;6.10;99.90;;;;;;4997040;28;20057;-77
2023/01/24 12:56:10;;;;;;;18.20;11.50;;;5.50;99.90;;;;;;4998453;28;20049;-78
2023/01/24 12:58:40;;;;;;;19.67;10.55;;;5.50;99.90;;;;;;4996825;28;20464;-81
2023/01/24 13:01:19;;;;;;;20.25;12.27;;;5.50;99.90;;;;;;5015359;28;20049;-76
2023/01/24 13:03:54;;;;;;;23.10;12.18;;;5.50;99.90;;;;;;4997556;28;20046;-77
2023/01/24 13:06:57;;;;;;;18.13;12.15;;;5.50;99.90;;;;;;4996916;28;20038;-80
2023/01/24 13:09:42;;;;;;;19.55;12.60;;;5.50;99.90;;;;;;4996386;28;20049;-78
2023/01/24 13:12:23;;;;;;;23.67;12.60;;;5.50;99.90;;;;;;5014293;28;20034;-76
2023/01/24 13:15:04;;;;;;;23.17;12.52;;;6.90;99.90;;;;;;5014856;28;20053;-75
2023/01/24 13:18:03;;;;;;;20.45;12.77;;;5.60;99.90;;;;;;5013813;28;20050;-81
2023/01/24 13:20:48;;;;;;;21.25;12.88;;;5.60;99.90;;;;;;4997614;28;20499;-79
2023/01/24 13:23:38;;;;;;;20.67;13.80;;;5.60;99.90;;;;;;5014843;28;20046;-79
2023/01/24 13:26:31;;;;;;;22.23;12.93;;;5.50;99.90;;;;;;5013898;28;20057;-76
2023/01/24 13:29:17;;;;;;;22.48;12.27;;;5.50;99.90;;;;;;5014827;28;20353;-77
2023/01/24 13:31:58;;;;;;;18.95;10.88;;;5.50;99.90;;;;;;4996613;28;20053;-76
2023/01/24 13:34:31;;;;;;;16.45;10.55;;;5.40;99.90;;;;;;5015081;28;20038;-75
2023/01/24 13:37:00;;;;;;;18.05;10.65;;;7.10;99.90;;;;;;4998064;28;20050;-81
2023/01/24 13:39:39;;;;;;;14.10;8.18;;;5.40;99.90;;;;;;4996545;28;20057;-76
2023/01/24 13:42:22;;;;;;;12.50;8.15;;;5.40;99.90;;;;;;5014685;28;20073;-79
2023/01/24 13:44:50;;;;;;;13.77;8.27;;;6.20;99.90;;;;;;5013675;28;20053;-79
2023/01/24 13:47:17;;;;;;;;;;;5.50;99.90;;;;;;5014903;28;20060;-79
2023/01/24 13:49:54;;;;;;;16.20;8.05;;;5.40;99.90;;;;;;4981300;28;19922;-76
2023/01/24 13:52:33;;;;;;;16.40;8.80;;;5.40;99.90;;;;;;5013455;28;20038;-79